sensor_id;sensor_type;location;lat;lon;timestamp;temperature;humidity
64654;DHT22;51065;48.884;12.598;2022-10-16T00:00:38;14.30;99.90
64654;DHT22;51065;48.884;12.598;2022-10-16T00:03:04;14.30;99.90
64654;DHT22;51065;48.884;12.598;2022-10-16T00:05:30;14.30;99.90
64654;DHT22;51065;48.884;12.598;2022-10-16T00:07:56;14.30;99.90
64654;DHT22;51065;48.884;12.598;2022-10-16T00:10:22;14.30;99.90
64654;DHT22;51065;48.884;12.598;2022-10-16T00:12:48;14.30;99.90
64654;DHT22;51065;48.884;12.598;2022-10-16T00:15:13;14.30;99.90
64654;DHT22;51065;48.884;12.598;2022-10-16T00:17:39;14.30;99.90
64654;DHT22;51065;48.884;12.598;2022-10-16T00:20:05;14.30;99.90
64654;DHT22;51065;48.884;12.598;2022-10-16T00:22:31;14.40;99.90
64654;DHT22;51065;48.884;12.598;2022-10-16T00:24:56;14.40;99.90
64654;DHT22;51065;48.884;12.598;2022-10-16T00:27:22;14.40;99.90
64654;DHT22;51065;48.884;12.598;2022-10-16T00:29:51;14.40;99.90
64654;DHT22;51065;48.884;12.598;2022-10-16T00:32:19;14.40;99.90
64654;DHT22;51065;48.884;12.598;2022-10-16T00:34:45;14.40;99.90
64654;DHT22;51065;48.884;12.598;2022-10-16T00:37:11;14.30;99.90
64654;DHT22;51065;48.884;12.598;2022-10-16T00:39:36;14.30;99.90
64654;DHT22;51065;48.884;12.598;2022-10-16T00:42:02;14.30;99.90
64654;DHT22;51065;48.884;12.598;2022-10-16T00:50:16;14.20;99.90
64654;DHT22;51065;48.884;12.598;2022-10-16T00:52:47;14.20;99.90
64654;DHT22;51065;48.884;12.598;2022-10-16T00:55:14;14.20;99.90
64654;DHT22;51065;48.884;12.598;2022-10-16T00:57:40;14.10;99.90
64654;DHT22;51065;48.884;12.598;2022-10-16T01:00:09;14.10;99.90
64654;DHT22;51065;48.884;12.598;2022-10-16T01:02:35;14.10;99.90
64654;DHT22;51065;48.884;12.598;2022-10-16T01:05:01;14.10;99.90
64654;DHT22;51065;48.884;12.598;2022-10-16T01:10:27;14.10;99.90
64654;DHT22;51065;48.884;12.598;2022-10-16T01:13:12;14.10;99.90
64654;DHT22;51065;48.884;12.598;2022-10-16T01:15:45;14.10;99.90
64654;DHT22;51065;48.884;12.598;2022-10-16T01:18:34;14.00;99.90
64654;DHT22;51065;48.884;12.598;2022-10-16T01:21:05;14.00;99.90
64654;DHT22;51065;48.884;12.598;2022-10-16T01:35:17;13.90;99.90
64654;DHT22;51065;48.884;12.598;2022-10-16T01:37:51;13.90;99.90
64654;DHT22;51065;48.884;12.598;2022-10-16T01:40:20;13.90;99.90
64654;DHT22;51065;48.884;12.598;2022-10-16T01:43:34;13.90;99.90
64654;DHT22;51065;48.884;12.598;2022-10-16T01:45:41;13.90;99.90
64654;DHT22;51065;48.884;12.598;2022-10-16T01:48:07;13.90;99.90
64654;DHT22;51065;48.884;12.598;2022-10-16T01:50:38;13.90;99.90
64654;DHT22;51065;48.884;12.598;2022-10-16T01:53:07;13.90;99.90
64654;DHT22;51065;48.884;12.598;2022-10-16T01:55:39;13.90;99.90
64654;DHT22;51065;48.884;12.598;2022-10-16T01:58:09;13.90;99.90
64654;DHT22;51065;48.884;12.598;2022-10-16T02:00:38;13.90;99.90
64654;DHT22;51065;48.884;12.598;2022-10-16T02:03:05;13.80;99.90
64654;DHT22;51065;48.884;12.598;2022-10-16T02:06:11;13.80;99.90
64654;DHT22;51065;48.884;12.598;2022-10-16T02:08:30;13.80;99.90
64654;DHT22;51065;48.884;12.598;2022-10-16T02:10:58;13.70;99.90
64654;DHT22;51065;48.884;12.598;2022-10-16T02:13:33;13.80;99.90
64654;DHT22;51065;48.884;12.598;2022-10-16T02:16:01;13.80;99.90
64654;DHT22;51065;48.884;12.598;2022-10-16T02:18:26;13.80;99.90
64654;DHT22;51065;48.884;12.598;2022-10-16T02:26:30;13.70;99.90
64654;DHT22;51065;48.884;12.598;2022-10-16T02:29:06;13.80;99.90
64654;DHT22;51065;48.884;12.598;2022-10-16T02:31:35;13.70;99.90
64654;DHT22;51065;48.884;12.598;2022-10-16T02:34:03;13.70;99.90
64654;DHT22;51065;48.884;12.598;2022-10-16T02:36:31;13.60;99.90
64654;DHT22;51065;48.884;12.598;2022-10-16T02:38:58;13.60;99.90
64654;DHT22;51065;48.884;12.598;2022-10-16T02:41:25;13.50;99.90
64654;DHT22;51065;48.884;12.598;2022-10-16T02:43:51;13.50;99.90
64654;DHT22;51065;48.884;12.598;2022-10-16T02:46:17;13.40;99.90
64654;DHT22;51065;48.884;12.598;2022-10-16T02:48:43;13.40;99.90
64654;DHT22;51065;48.884;12.598;2022-10-16T02:51:09;13.30;99.90
64654;DHT22;51065;48.884;12.598;2022-10-16T02:53:34;13.30;99.90
64654;DHT22;51065;48.884;12.598;2022-10-16T02:56:00;13.30;99.90
64654;DHT22;51065;48.884;12.598;2022-10-16T02:58:25;13.20;99.90
64654;DHT22;51065;48.884;12.598;2022-10-16T03:00:51;13.20;99.90
64654;DHT22;51065;48.884;12.598;2022-10-16T03:03:17;13.20;99.90
64654;DHT22;51065;48.884;12.598;2022-10-16T03:05:43;13.10;99.90
64654;DHT22;51065;48.884;12.598;2022-10-16T03:08:11;13.10;99.90
64654;DHT22;51065;48.884;12.598;2022-10-16T03:10:37;13.10;99.90
64654;DHT22;51065;48.884;12.598;2022-10-16T03:13:02;13.10;99.90
64654;DHT22;51065;48.884;12.598;2022-10-16T03:15:28;13.10;99.90
64654;DHT22;51065;48.884;12.598;2022-10-16T03:17:54;13.10;99.90
64654;DHT22;51065;48.884;12.598;2022-10-16T03:20:20;13.10;99.90
64654;DHT22;51065;48.884;12.598;2022-10-16T03:22:46;13.00;99.90
64654;DHT22;51065;48.884;12.598;2022-10-16T03:25:11;13.00;99.90
64654;DHT22;51065;48.884;12.598;2022-10-16T03:27:37;13.00;99.90
64654;DHT22;51065;48.884;12.598;2022-10-16T03:30:03;13.00;99.90
64654;DHT22;51065;48.884;12.598;2022-10-16T03:32:28;12.90;99.90
64654;DHT22;51065;48.884;12.598;2022-10-16T03:34:54;13.00;99.90
64654;DHT22;51065;48.884;12.598;2022-10-16T03:37:21;13.00;99.90
64654;DHT22;51065;48.884;12.598;2022-10-16T03:39:47;13.00;99.90
64654;DHT22;51065;48.884;12.598;2022-10-16T03:42:12;13.00;99.90
64654;DHT22;51065;48.884;12.598;2022-10-16T03:44:38;12.90;99.90
64654;DHT22;51065;48.884;12.598;2022-10-16T03:47:03;13.00;99.90
64654;DHT22;51065;48.884;12.598;2022-10-16T03:49:29;12.90;99.90
64654;DHT22;51065;48.884;12.598;2022-10-16T03:51:55;12.90;99.90
64654;DHT22;51065;48.884;12.598;2022-10-16T03:54:20;13.00;99.90
64654;DHT22;51065;48.884;12.598;2022-10-16T03:56:47;13.10;99.90
64654;DHT22;51065;48.884;12.598;2022-10-16T03:59:13;13.10;99.90
64654;DHT22;51065;48.884;12.598;2022-10-16T04:01:38;13.00;99.90
64654;DHT22;51065;48.884;12.598;2022-10-16T04:04:04;13.00;99.90
64654;DHT22;51065;48.884;12.598;2022-10-16T04:06:29;12.90;99.90
64654;DHT22;51065;48.884;12.598;2022-10-16T04:08:55;12.80;99.90
64654;DHT22;51065;48.884;12.598;2022-10-16T04:11:21;12.80;99.90
64654;DHT22;51065;48.884;12.598;2022-10-16T04:13:47;12.80;99.90
64654;DHT22;51065;48.884;12.598;2022-10-16T04:16:12;12.80;99.90
64654;DHT22;51065;48.884;12.598;2022-10-16T04:18:38;12.80;99.90
64654;DHT22;51065;48.884;12.598;2022-10-16T04:21:05;12.80;99.90
64654;DHT22;51065;48.884;12.598;2022-10-16T04:23:31;12.70;99.90
64654;DHT22;51065;48.884;12.598;2022-10-16T04:25:57;12.60;99.90
64654;DHT22;51065;48.884;12.598;2022-10-16T04:28:23;12.60;99.90
64654;DHT22;51065;48.884;12.598;2022-10-16T04:30:48;12.70;99.90
64654;DHT22;51065;48.884;12.598;2022-10-16T04:33:14;12.70;99.90
64654;DHT22;51065;48.884;12.598;2022-10-16T04:35:40;12.70;99.90
64654;DHT22;51065;48.884;12.598;2022-10-16T04:38:05;12.70;99.90
64654;DHT22;51065;48.884;12.598;2022-10-16T04:40:31;12.70;99.90
64654;DHT22;51065;48.884;12.598;2022-10-16T04:42:59;12.70;99.90
64654;DHT22;51065;48.884;12.598;2022-10-16T04:45:24;12.70;99.90
64654;DHT22;51065;48.884;12.598;2022-10-16T04:47:50;12.70;99.90
64654;DHT22;51065;48.884;12.598;2022-10-16T04:50:16;12.70;99.90
64654;DHT22;51065;48.884;12.598;2022-10-16T04:52:41;12.70;99.90
64654;DHT22;51065;48.884;12.598;2022-10-16T04:55:07;12.70;99.90
64654;DHT22;51065;48.884;12.598;2022-10-16T04:57:33;12.70;99.90
64654;DHT22;51065;48.884;12.598;2022-10-16T04:59:59;12.70;99.90
64654;DHT22;51065;48.884;12.598;2022-10-16T05:02:24;12.80;99.90
64654;DHT22;51065;48.884;12.598;2022-10-16T05:04:50;12.80;99.90
64654;DHT22;51065;48.884;12.598;2022-10-16T05:07:16;12.80;99.90
64654;DHT22;51065;48.884;12.598;2022-10-16T05:09:42;12.90;99.90
64654;DHT22;51065;48.884;12.598;2022-10-16T05:12:07;12.80;99.90
64654;DHT22;51065;48.884;12.598;2022-10-16T05:14:33;12.80;99.90
64654;DHT22;51065;48.884;12.598;2022-10-16T05:17:00;12.80;99.90
64654;DHT22;51065;48.884;12.598;2022-10-16T05:19:25;12.80;99.90
64654;DHT22;51065;48.884;12.598;2022-10-16T05:21:51;12.80;99.90
64654;DHT22;51065;48.884;12.598;2022-10-16T05:24:17;12.80;99.90
64654;DHT22;51065;48.884;12.598;2022-10-16T05:26:42;12.90;99.90
64654;DHT22;51065;48.884;12.598;2022-10-16T05:29:09;12.80;99.90
64654;DHT22;51065;48.884;12.598;2022-10-16T05:31:34;12.90;99.90
64654;DHT22;51065;48.884;12.598;2022-10-16T05:34:00;12.90;99.90
64654;DHT22;51065;48.884;12.598;2022-10-16T05:36:26;12.90;99.90
64654;DHT22;51065;48.884;12.598;2022-10-16T05:38:52;12.90;99.90
64654;DHT22;51065;48.884;12.598;2022-10-16T05:41:17;12.90;99.90
64654;DHT22;51065;48.884;12.598;2022-10-16T05:43:50;12.80;99.90
64654;DHT22;51065;48.884;12.598;2022-10-16T05:46:16;12.80;99.90
64654;DHT22;51065;48.884;12.598;2022-10-16T05:48:42;12.70;99.90
64654;DHT22;51065;48.884;12.598;2022-10-16T05:51:11;12.70;99.90
64654;DHT22;51065;48.884;12.598;2022-10-16T05:53:38;12.70;99.90
64654;DHT22;51065;48.884;12.598;2022-10-16T05:56:05;12.70;99.90
64654;DHT22;51065;48.884;12.598;2022-10-16T05:58:35;12.70;99.90
64654;DHT22;51065;48.884;12.598;2022-10-16T06:01:12;12.70;99.90
64654;DHT22;51065;48.884;12.598;2022-10-16T06:03:38;12.70;99.90
64654;DHT22;51065;48.884;12.598;2022-10-16T06:06:18;12.70;99.90
64654;DHT22;51065;48.884;12.598;2022-10-16T06:08:46;12.70;99.90
64654;DHT22;51065;48.884;12.598;2022-10-16T06:11:16;12.80;99.90
64654;DHT22;51065;48.884;12.598;2022-10-16T06:13:43;12.90;99.90
64654;DHT22;51065;48.884;12.598;2022-10-16T06:16:10;12.90;99.90
64654;DHT22;51065;48.884;12.598;2022-10-16T06:18:36;13.00;99.90
64654;DHT22;51065;48.884;12.598;2022-10-16T06:21:08;13.20;99.90
64654;DHT22;51065;48.884;12.598;2022-10-16T06:23:34;13.20;99.90
64654;DHT22;51065;48.884;12.598;2022-10-16T06:26:13;13.40;99.90
64654;DHT22;51065;48.884;12.598;2022-10-16T06:28:39;13.70;99.90
64654;DHT22;51065;48.884;12.598;2022-10-16T06:31:07;14.00;99.90
64654;DHT22;51065;48.884;12.598;2022-10-16T06:33:32;14.40;99.90
64654;DHT22;51065;48.884;12.598;2022-10-16T06:36:12;14.60;99.90
64654;DHT22;51065;48.884;12.598;2022-10-16T06:38:38;14.50;99.90
64654;DHT22;51065;48.884;12.598;2022-10-16T06:41:05;14.30;99.90
64654;DHT22;51065;48.884;12.598;2022-10-16T06:43:32;14.10;99.90
64654;DHT22;51065;48.884;12.598;2022-10-16T06:45:59;14.00;99.90
64654;DHT22;51065;48.884;12.598;2022-10-16T06:48:25;14.00;99.90
64654;DHT22;51065;48.884;12.598;2022-10-16T06:53:24;14.00;99.90
64654;DHT22;51065;48.884;12.598;2022-10-16T06:55:50;14.10;99.90
64654;DHT22;51065;48.884;12.598;2022-10-16T06:58:16;14.50;99.90
64654;DHT22;51065;48.884;12.598;2022-10-16T07:00:41;15.00;99.90
64654;DHT22;51065;48.884;12.598;2022-10-16T07:03:07;15.30;99.90
64654;DHT22;51065;48.884;12.598;2022-10-16T07:05:38;15.30;99.90
64654;DHT22;51065;48.884;12.598;2022-10-16T07:08:03;15.30;99.90
64654;DHT22;51065;48.884;12.598;2022-10-16T07:10:31;15.20;99.90
64654;DHT22;51065;48.884;12.598;2022-10-16T07:12:56;15.20;99.90
64654;DHT22;51065;48.884;12.598;2022-10-16T07:15:22;15.00;99.90
64654;DHT22;51065;48.884;12.598;2022-10-16T07:17:48;14.90;99.90
64654;DHT22;51065;48.884;12.598;2022-10-16T07:20:13;15.20;99.90
64654;DHT22;51065;48.884;12.598;2022-10-16T07:22:39;15.90;99.90
64654;DHT22;51065;48.884;12.598;2022-10-16T07:25:05;16.00;99.90
64654;DHT22;51065;48.884;12.598;2022-10-16T07:27:31;15.80;99.90
64654;DHT22;51065;48.884;12.598;2022-10-16T07:29:56;16.00;99.90
64654;DHT22;51065;48.884;12.598;2022-10-16T07:32:22;16.50;99.90
64654;DHT22;51065;48.884;12.598;2022-10-16T07:34:47;17.10;99.90
64654;DHT22;51065;48.884;12.598;2022-10-16T07:37:13;17.50;99.90
64654;DHT22;51065;48.884;12.598;2022-10-16T07:39:38;17.40;99.90
64654;DHT22;51065;48.884;12.598;2022-10-16T07:42:04;17.40;99.90
64654;DHT22;51065;48.884;12.598;2022-10-16T07:44:30;17.60;99.90
64654;DHT22;51065;48.884;12.598;2022-10-16T07:46:55;17.70;99.90
64654;DHT22;51065;48.884;12.598;2022-10-16T07:49:21;18.70;99.90
64654;DHT22;51065;48.884;12.598;2022-10-16T07:51:46;19.00;99.90
64654;DHT22;51065;48.884;12.598;2022-10-16T07:54:12;18.60;99.90
64654;DHT22;51065;48.884;12.598;2022-10-16T07:56:38;18.20;99.90
64654;DHT22;51065;48.884;12.598;2022-10-16T07:59:03;18.40;99.90
64654;DHT22;51065;48.884;12.598;2022-10-16T08:01:29;19.30;99.90
64654;DHT22;51065;48.884;12.598;2022-10-16T08:03:54;19.90;99.90
64654;DHT22;51065;48.884;12.598;2022-10-16T08:06:21;20.30;96.90
64654;DHT22;51065;48.884;12.598;2022-10-16T08:08:47;20.00;95.80
64654;DHT22;51065;48.884;12.598;2022-10-16T08:11:13;19.70;98.20
64654;DHT22;51065;48.884;12.598;2022-10-16T08:13:40;19.90;96.30
64654;DHT22;51065;48.884;12.598;2022-10-16T08:16:06;19.60;99.60
64654;DHT22;51065;48.884;12.598;2022-10-16T08:18:34;19.50;97.40
64654;DHT22;51065;48.884;12.598;2022-10-16T08:21:00;19.60;99.30
64654;DHT22;51065;48.884;12.598;2022-10-16T08:23:27;19.80;96.90
64654;DHT22;51065;48.884;12.598;2022-10-16T08:25:54;19.40;97.80
64654;DHT22;51065;48.884;12.598;2022-10-16T08:28:21;19.80;97.00
64654;DHT22;51065;48.884;12.598;2022-10-16T08:30:47;19.70;96.80
64654;DHT22;51065;48.884;12.598;2022-10-16T08:33:12;19.70;96.30
64654;DHT22;51065;48.884;12.598;2022-10-16T08:35:38;19.60;95.00
64654;DHT22;51065;48.884;12.598;2022-10-16T08:38:04;19.00;96.80
64654;DHT22;51065;48.884;12.598;2022-10-16T08:40:32;18.70;99.90
64654;DHT22;51065;48.884;12.598;2022-10-16T08:48:56;19.20;99.20
64654;DHT22;51065;48.884;12.598;2022-10-16T08:51:24;19.90;95.20
64654;DHT22;51065;48.884;12.598;2022-10-16T08:54:01;20.20;93.70
64654;DHT22;51065;48.884;12.598;2022-10-16T08:56:28;20.00;93.10
64654;DHT22;51065;48.884;12.598;2022-10-16T08:58:54;19.60;95.40
64654;DHT22;51065;48.884;12.598;2022-10-16T09:01:22;19.60;93.00
64654;DHT22;51065;48.884;12.598;2022-10-16T09:06:56;18.40;99.90
64654;DHT22;51065;48.884;12.598;2022-10-16T09:15:34;18.60;99.90
64654;DHT22;51065;48.884;12.598;2022-10-16T09:20:51;20.00;94.70
64654;DHT22;51065;48.884;12.598;2022-10-16T09:23:27;20.20;92.50
64654;DHT22;51065;48.884;12.598;2022-10-16T09:25:53;20.20;92.50
64654;DHT22;51065;48.884;12.598;2022-10-16T09:28:19;20.90;89.50
64654;DHT22;51065;48.884;12.598;2022-10-16T09:30:46;21.10;86.70
64654;DHT22;51065;48.884;12.598;2022-10-16T09:33:14;21.00;87.20
64654;DHT22;51065;48.884;12.598;2022-10-16T09:35:43;21.40;80.40
64654;DHT22;51065;48.884;12.598;2022-10-16T09:38:23;21.60;81.80
64654;DHT22;51065;48.884;12.598;2022-10-16T09:40:49;21.30;80.40
64654;DHT22;51065;48.884;12.598;2022-10-16T09:43:35;21.30;81.10
64654;DHT22;51065;48.884;12.598;2022-10-16T09:46:06;22.30;79.90
64654;DHT22;51065;48.884;12.598;2022-10-16T09:48:49;23.10;73.90
64654;DHT22;51065;48.884;12.598;2022-10-16T09:51:37;22.70;69.20
64654;DHT22;51065;48.884;12.598;2022-10-16T09:54:20;22.10;74.20
64654;DHT22;51065;48.884;12.598;2022-10-16T09:56:46;22.30;74.40
64654;DHT22;51065;48.884;12.598;2022-10-16T09:59:21;21.80;74.30
64654;DHT22;51065;48.884;12.598;2022-10-16T10:01:53;22.40;74.10
64654;DHT22;51065;48.884;12.598;2022-10-16T10:04:24;22.20;73.80
64654;DHT22;51065;48.884;12.598;2022-10-16T10:06:55;22.10;73.40
64654;DHT22;51065;48.884;12.598;2022-10-16T10:09:25;21.20;76.20
64654;DHT22;51065;48.884;12.598;2022-10-16T10:11:52;21.40;79.40
64654;DHT22;51065;48.884;12.598;2022-10-16T10:17:19;21.70;78.10
64654;DHT22;51065;48.884;12.598;2022-10-16T10:19:55;22.20;76.00
64654;DHT22;51065;48.884;12.598;2022-10-16T10:25:12;21.90;76.40
64654;DHT22;51065;48.884;12.598;2022-10-16T10:47:26;24.70;67.60
64654;DHT22;51065;48.884;12.598;2022-10-16T10:52:58;24.20;67.10
64654;DHT22;51065;48.884;12.598;2022-10-16T10:55:54;25.00;65.30
64654;DHT22;51065;48.884;12.598;2022-10-16T11:06:40;23.50;68.00
64654;DHT22;51065;48.884;12.598;2022-10-16T11:09:22;24.30;67.60
64654;DHT22;51065;48.884;12.598;2022-10-16T11:12:02;25.00;66.00
64654;DHT22;51065;48.884;12.598;2022-10-16T11:15:04;25.10;65.20
64654;DHT22;51065;48.884;12.598;2022-10-16T11:17:41;25.50;62.20
64654;DHT22;51065;48.884;12.598;2022-10-16T11:20:18;25.00;62.80
64654;DHT22;51065;48.884;12.598;2022-10-16T11:25:26;24.20;64.30
64654;DHT22;51065;48.884;12.598;2022-10-16T11:28:03;23.50;67.10
64654;DHT22;51065;48.884;12.598;2022-10-16T11:31:05;23.50;69.10
64654;DHT22;51065;48.884;12.598;2022-10-16T11:33:39;23.60;69.30
64654;DHT22;51065;48.884;12.598;2022-10-16T11:36:12;23.60;67.50
64654;DHT22;51065;48.884;12.598;2022-10-16T11:39:20;23.20;68.80
64654;DHT22;51065;48.884;12.598;2022-10-16T11:47:39;24.40;67.10
64654;DHT22;51065;48.884;12.598;2022-10-16T11:50:20;25.20;64.60
64654;DHT22;51065;48.884;12.598;2022-10-16T11:55:42;26.00;61.80
64654;DHT22;51065;48.884;12.598;2022-10-16T11:58:13;26.30;61.10
64654;DHT22;51065;48.884;12.598;2022-10-16T12:05:57;25.50;62.80
64654;DHT22;51065;48.884;12.598;2022-10-16T12:08:25;25.30;62.20
64654;DHT22;51065;48.884;12.598;2022-10-16T12:10:51;25.70;62.70
64654;DHT22;51065;48.884;12.598;2022-10-16T12:13:40;25.30;61.40
64654;DHT22;51065;48.884;12.598;2022-10-16T12:18:48;26.20;59.40
64654;DHT22;51065;48.884;12.598;2022-10-16T12:21:15;26.10;61.40
64654;DHT22;51065;48.884;12.598;2022-10-16T12:23:55;26.60;58.80
64654;DHT22;51065;48.884;12.598;2022-10-16T12:26:30;26.00;59.20
64654;DHT22;51065;48.884;12.598;2022-10-16T12:31:43;25.30;61.30
64654;DHT22;51065;48.884;12.598;2022-10-16T12:34:41;24.10;64.40
64654;DHT22;51065;48.884;12.598;2022-10-16T12:37:11;23.30;68.80
64654;DHT22;51065;48.884;12.598;2022-10-16T12:39:38;22.60;71.20
64654;DHT22;51065;48.884;12.598;2022-10-16T12:42:19;22.30;72.30
64654;DHT22;51065;48.884;12.598;2022-10-16T12:44:45;22.00;76.00
64654;DHT22;51065;48.884;12.598;2022-10-16T12:49:55;21.80;78.50
64654;DHT22;51065;48.884;12.598;2022-10-16T12:52:35;21.70;76.00
64654;DHT22;51065;48.884;12.598;2022-10-16T12:55:02;21.90;77.40
64654;DHT22;51065;48.884;12.598;2022-10-16T12:58:00;22.00;78.60
64654;DHT22;51065;48.884;12.598;2022-10-16T13:00:51;22.10;78.40
64654;DHT22;51065;48.884;12.598;2022-10-16T13:04:02;22.00;79.10
64654;DHT22;51065;48.884;12.598;2022-10-16T13:06:43;22.30;79.20
64654;DHT22;51065;48.884;12.598;2022-10-16T13:17:48;23.00;72.90
64654;DHT22;51065;48.884;12.598;2022-10-16T13:20:23;22.80;73.20
64654;DHT22;51065;48.884;12.598;2022-10-16T13:23:23;22.40;76.80
64654;DHT22;51065;48.884;12.598;2022-10-16T13:25:55;22.40;77.50
64654;DHT22;51065;48.884;12.598;2022-10-16T13:28:28;22.60;77.30
64654;DHT22;51065;48.884;12.598;2022-10-16T13:30:56;22.50;77.20
64654;DHT22;51065;48.884;12.598;2022-10-16T13:33:33;22.30;79.40
64654;DHT22;51065;48.884;12.598;2022-10-16T13:36:00;22.20;78.80
64654;DHT22;51065;48.884;12.598;2022-10-16T13:38:29;22.00;81.90
64654;DHT22;51065;48.884;12.598;2022-10-16T13:41:12;22.10;81.50
64654;DHT22;51065;48.884;12.598;2022-10-16T13:43:51;21.90;82.20
64654;DHT22;51065;48.884;12.598;2022-10-16T13:46:20;21.90;83.30
64654;DHT22;51065;48.884;12.598;2022-10-16T13:48:59;21.70;85.40
64654;DHT22;51065;48.884;12.598;2022-10-16T13:51:26;21.70;88.70
64654;DHT22;51065;48.884;12.598;2022-10-16T13:53:52;21.60;90.70
64654;DHT22;51065;48.884;12.598;2022-10-16T13:56:20;21.60;90.90
64654;DHT22;51065;48.884;12.598;2022-10-16T13:58:57;21.50;90.70
64654;DHT22;51065;48.884;12.598;2022-10-16T14:01:29;21.50;91.60
64654;DHT22;51065;48.884;12.598;2022-10-16T14:04:05;21.40;92.40
64654;DHT22;51065;48.884;12.598;2022-10-16T14:06:32;21.40;93.70
64654;DHT22;51065;48.884;12.598;2022-10-16T14:09:23;21.30;94.00
64654;DHT22;51065;48.884;12.598;2022-10-16T14:11:55;21.20;93.70
64654;DHT22;51065;48.884;12.598;2022-10-16T14:14:22;21.10;95.40
64654;DHT22;51065;48.884;12.598;2022-10-16T14:16:48;21.10;95.40
64654;DHT22;51065;48.884;12.598;2022-10-16T14:19:21;20.90;96.90
64654;DHT22;51065;48.884;12.598;2022-10-16T14:21:49;20.80;97.50
64654;DHT22;51065;48.884;12.598;2022-10-16T14:26:56;20.60;99.90
64654;DHT22;51065;48.884;12.598;2022-10-16T14:29:24;20.40;99.90
64654;DHT22;51065;48.884;12.598;2022-10-16T14:32:22;20.30;99.90
64654;DHT22;51065;48.884;12.598;2022-10-16T14:34:53;20.30;99.90
64654;DHT22;51065;48.884;12.598;2022-10-16T14:37:27;20.30;99.90
64654;DHT22;51065;48.884;12.598;2022-10-16T14:39:54;20.30;99.90
64654;DHT22;51065;48.884;12.598;2022-10-16T14:42:23;20.20;99.90
64654;DHT22;51065;48.884;12.598;2022-10-16T14:44:51;20.20;99.90
64654;DHT22;51065;48.884;12.598;2022-10-16T14:47:23;20.20;99.90
64654;DHT22;51065;48.884;12.598;2022-10-16T14:49:51;20.10;99.90
64654;DHT22;51065;48.884;12.598;2022-10-16T14:52:17;20.10;99.90
64654;DHT22;51065;48.884;12.598;2022-10-16T14:54:43;20.10;99.90
64654;DHT22;51065;48.884;12.598;2022-10-16T14:57:20;20.10;99.90
64654;DHT22;51065;48.884;12.598;2022-10-16T14:59:46;20.10;99.90
64654;DHT22;51065;48.884;12.598;2022-10-16T15:02:27;20.10;99.90
64654;DHT22;51065;48.884;12.598;2022-10-16T15:04:54;20.00;99.90
64654;DHT22;51065;48.884;12.598;2022-10-16T15:07:20;20.00;99.90
64654;DHT22;51065;48.884;12.598;2022-10-16T15:09:45;20.00;99.90
64654;DHT22;51065;48.884;12.598;2022-10-16T15:12:11;19.90;99.90
64654;DHT22;51065;48.884;12.598;2022-10-16T15:14:37;19.90;99.90
64654;DHT22;51065;48.884;12.598;2022-10-16T15:17:03;19.80;99.90
64654;DHT22;51065;48.884;12.598;2022-10-16T15:19:29;19.80;99.90
64654;DHT22;51065;48.884;12.598;2022-10-16T15:21:55;19.70;99.90
64654;DHT22;51065;48.884;12.598;2022-10-16T15:24:20;19.60;99.90
64654;DHT22;51065;48.884;12.598;2022-10-16T15:26:46;19.70;99.90
64654;DHT22;51065;48.884;12.598;2022-10-16T15:29:12;19.70;99.90
64654;DHT22;51065;48.884;12.598;2022-10-16T15:31:38;19.60;99.90
64654;DHT22;51065;48.884;12.598;2022-10-16T15:34:08;19.40;99.90
64654;DHT22;51065;48.884;12.598;2022-10-16T15:36:37;19.30;99.90
64654;DHT22;51065;48.884;12.598;2022-10-16T15:39:12;19.20;99.90
64654;DHT22;51065;48.884;12.598;2022-10-16T15:41:38;19.10;99.90
64654;DHT22;51065;48.884;12.598;2022-10-16T15:44:04;19.10;99.90
64654;DHT22;51065;48.884;12.598;2022-10-16T15:46:30;18.90;99.90
64654;DHT22;51065;48.884;12.598;2022-10-16T15:48:57;18.80;99.90
64654;DHT22;51065;48.884;12.598;2022-10-16T15:51:24;18.70;99.90
64654;DHT22;51065;48.884;12.598;2022-10-16T15:53:50;18.60;99.90
64654;DHT22;51065;48.884;12.598;2022-10-16T15:56:16;18.40;99.90
64654;DHT22;51065;48.884;12.598;2022-10-16T15:58:43;18.30;99.90
64654;DHT22;51065;48.884;12.598;2022-10-16T16:01:09;18.20;99.90
64654;DHT22;51065;48.884;12.598;2022-10-16T16:03:37;18.10;99.90
64654;DHT22;51065;48.884;12.598;2022-10-16T16:06:05;18.00;99.90
64654;DHT22;51065;48.884;12.598;2022-10-16T16:08:31;17.90;99.90
64654;DHT22;51065;48.884;12.598;2022-10-16T16:11:02;17.90;99.90
64654;DHT22;51065;48.884;12.598;2022-10-16T16:13:28;17.80;99.90
64654;DHT22;51065;48.884;12.598;2022-10-16T16:15:53;17.70;99.90
64654;DHT22;51065;48.884;12.598;2022-10-16T16:18:19;17.60;99.90
64654;DHT22;51065;48.884;12.598;2022-10-16T16:20:45;17.60;99.90
64654;DHT22;51065;48.884;12.598;2022-10-16T16:23:10;17.40;99.90
64654;DHT22;51065;48.884;12.598;2022-10-16T16:25:36;17.20;99.90
64654;DHT22;51065;48.884;12.598;2022-10-16T16:28:02;16.90;99.90
64654;DHT22;51065;48.884;12.598;2022-10-16T16:30:27;16.70;99.90
64654;DHT22;51065;48.884;12.598;2022-10-16T16:32:53;16.50;99.90
64654;DHT22;51065;48.884;12.598;2022-10-16T16:35:19;16.40;99.90
64654;DHT22;51065;48.884;12.598;2022-10-16T16:37:46;16.30;99.90
64654;DHT22;51065;48.884;12.598;2022-10-16T16:40:12;16.20;99.90
64654;DHT22;51065;48.884;12.598;2022-10-16T16:42:38;16.00;99.90
64654;DHT22;51065;48.884;12.598;2022-10-16T16:45:04;15.80;99.90
64654;DHT22;51065;48.884;12.598;2022-10-16T16:47:29;15.70;99.90
64654;DHT22;51065;48.884;12.598;2022-10-16T16:49:55;15.50;99.90
64654;DHT22;51065;48.884;12.598;2022-10-16T16:52:20;15.40;99.90
64654;DHT22;51065;48.884;12.598;2022-10-16T16:54:47;15.20;99.90
64654;DHT22;51065;48.884;12.598;2022-10-16T16:57:18;15.20;99.90
64654;DHT22;51065;48.884;12.598;2022-10-16T16:59:43;15.10;99.90
64654;DHT22;51065;48.884;12.598;2022-10-16T17:02:09;15.00;99.90
64654;DHT22;51065;48.884;12.598;2022-10-16T17:04:35;15.00;99.90
64654;DHT22;51065;48.884;12.598;2022-10-16T17:07:00;14.90;99.90
64654;DHT22;51065;48.884;12.598;2022-10-16T17:09:26;14.80;99.90
64654;DHT22;51065;48.884;12.598;2022-10-16T17:11:52;14.80;99.90
64654;DHT22;51065;48.884;12.598;2022-10-16T17:14:17;14.70;99.90
64654;DHT22;51065;48.884;12.598;2022-10-16T17:16:43;14.70;99.90
64654;DHT22;51065;48.884;12.598;2022-10-16T17:19:14;14.60;99.90
64654;DHT22;51065;48.884;12.598;2022-10-16T17:21:40;14.50;99.90
64654;DHT22;51065;48.884;12.598;2022-10-16T17:24:06;14.50;99.90
64654;DHT22;51065;48.884;12.598;2022-10-16T17:26:32;14.40;99.90